Time;durP1;ratioP1;P1;durP2;ratioP2;P2;SDS_P1;SDS_P2;PMS_P1;PMS_P2;Temp;Humidity;BMP_temperature;BMP_pressure;BME280_temperature;BME280_humidity;BME280_pressure;Samples;Min_cycle;Max_cycle;Signal;HPM_P1;HPM_P2
2024/01/22 00:00:07;;;;;;;61.07;23.33;;;;;;;;;;5045007;28;20316;-74
2024/01/22 00:02:32;;;;;;;60.87;22.70;;;;;;;;;;5027900;28;20225;-74
2024/01/22 00:04:57;;;;;;;58.00;22.27;;;;;;;;;;5047436;28;20822;-73
2024/01/22 00:07:23;;;;;;;63.57;24.30;;;;;;;;;;5048417;28;20248;-74
2024/01/22 00:09:48;;;;;;;77.43;28.40;;;;;;;;;;5049138;28;20262;-73
2024/01/22 00:12:14;;;;;;;83.03;29.53;;;;;;;;;;5048181;28;20672;-73
2024/01/22 00:14:39;;;;;;;73.80;27.63;;;;;;;;;;5050510;28;20235;-71
2024/01/22 00:17:05;;;;;;;77.47;27.87;;;;;;;;;;5034297;28;20307;-71
2024/01/22 00:19:30;;;;;;;80.80;25.97;;;;;;;;;;5069557;28;20232;-71
2024/01/22 00:21:55;;;;;;;81.30;26.93;;;;;;;;;;5050932;28;20737;-71
2024/01/22 00:24:20;;;;;;;80.87;27.00;;;;;;;;;;5050990;28;20260;-70
2024/01/22 00:26:46;;;;;;;85.67;28.03;;;;;;;;;;5049389;28;20274;-74
2024/01/22 00:29:11;;;;;;;90.77;29.40;;;;;;;;;;5047788;28;20340;-73
2024/01/22 00:31:36;;;;;;;111.80;31.93;;;;;;;;;;5066895;28;20228;-74
2024/01/22 00:34:02;;;;;;;94.83;29.87;;;;;;;;;;5032537;28;20223;-73
2024/01/22 00:36:27;;;;;;;96.93;29.80;;;;;;;;;;5031821;28;20231;-74
2024/01/22 00:38:52;;;;;;;98.50;29.60;;;;;;;;;;5032127;28;20228;-74
2024/01/22 00:41:18;;;;;;;95.00;29.47;;;;;;;;;;5030186;28;20237;-73
2024/01/22 00:43:43;;;;;;;98.73;30.73;;;;;;;;;;5032200;28;20220;-74
2024/01/22 00:46:09;;;;;;;98.10;30.53;;;;;;;;;;5031615;28;20614;-73
2024/01/22 00:48:34;;;;;;;96.63;30.07;;;;;;;;;;5031132;28;20224;-74
2024/01/22 00:50:59;;;;;;;99.03;30.23;;;;;;;;;;5065827;28;20712;-74
2024/01/22 00:53:25;;;;;;;86.93;28.97;;;;;;;;;;5047189;28;20216;-73
2024/01/22 00:55:50;;;;;;;87.90;28.97;;;;;;;;;;5066558;28;20225;-73
2024/01/22 00:58:15;;;;;;;85.60;27.73;;;;;;;;;;5047389;28;20270;-74
2024/01/22 01:00:41;;;;;;;87.73;30.37;;;;;;;;;;5066150;28;20249;-74
2024/01/22 01:03:06;;;;;;;87.30;28.20;;;;;;;;;;5031420;28;20220;-74
2024/01/22 01:05:32;;;;;;;96.47;30.47;;;;;;;;;;5042721;28;20225;-74
2024/01/22 01:07:57;;;;;;;93.40;29.80;;;;;;;;;;5047408;28;20220;-73
2024/01/22 01:10:22;;;;;;;106.77;31.57;;;;;;;;;;5065969;28;20250;-73
2024/01/22 01:12:48;;;;;;;107.03;32.30;;;;;;;;;;5031295;28;20231;-73
2024/01/22 01:15:13;;;;;;;100.80;32.30;;;;;;;;;;5028971;28;20614;-74
2024/01/22 01:17:39;;;;;;;129.60;36.67;;;;;;;;;;5030696;28;20217;-73
2024/01/22 01:20:04;;;;;;;136.83;38.43;;;;;;;;;;5030956;28;20251;-74
2024/01/22 01:22:30;;;;;;;149.43;41.60;;;;;;;;;;5031317;28;20225;-74
2024/01/22 01:24:55;;;;;;;141.73;40.20;;;;;;;;;;5031151;28;20316;-73
2024/01/22 01:27:21;;;;;;;136.50;41.17;;;;;;;;;;5047304;28;20618;-73
2024/01/22 01:29:46;;;;;;;139.30;40.40;;;;;;;;;;5066394;28;20669;-73
2024/01/22 01:32:12;;;;;;;132.63;36.70;;;;;;;;;;5031747;28;20227;-70
2024/01/22 01:34:37;;;;;;;108.43;34.70;;;;;;;;;;5067429;28;20224;-71
2024/01/22 01:37:03;;;;;;;111.17;34.03;;;;;;;;;;5047482;28;20298;-74
2024/01/22 01:39:28;;;;;;;112.77;33.47;;;;;;;;;;5045790;28;20225;-74
2024/01/22 01:41:54;;;;;;;113.53;35.27;;;;;;;;;;5031059;28;20224;-73
2024/01/22 01:44:19;;;;;;;115.37;35.10;;;;;;;;;;5030357;28;20701;-73
2024/01/22 01:46:45;;;;;;;115.17;32.90;;;;;;;;;;5028961;28;20289;-74
2024/01/22 01:49:10;;;;;;;106.47;33.50;;;;;;;;;;5047011;28;20229;-73
2024/01/22 01:51:35;;;;;;;102.13;31.77;;;;;;;;;;5030704;28;20213;-73
2024/01/22 01:54:01;;;;;;;97.93;31.67;;;;;;;;;;5044642;28;20236;-74
2024/01/22 01:56:27;;;;;;;94.53;30.50;;;;;;;;;;5029824;28;20235;-74
2024/01/22 01:58:54;;;;;;;97.47;30.17;;;;;;;;;;5047691;28;20232;-75
2024/01/22 02:01:19;;;;;;;93.37;30.73;;;;;;;;;;5046630;28;20236;-74
2024/01/22 02:03:45;;;;;;;94.00;32.20;;;;;;;;;;5029953;28;20282;-74
2024/01/22 02:06:11;;;;;;;88.20;30.07;;;;;;;;;;5046795;28;20228;-75
2024/01/22 02:08:36;;;;;;;99.77;31.37;;;;;;;;;;5030539;28;20224;-75
2024/01/22 02:11:01;;;;;;;91.17;29.93;;;;;;;;;;5064008;28;20241;-74
2024/01/22 02:13:28;;;;;;;97.77;30.43;;;;;;;;;;5046833;28;20304;-74
2024/01/22 02:15:53;;;;;;;85.73;30.63;;;;;;;;;;5064908;28;20294;-74
2024/01/22 02:18:19;;;;;;;87.07;30.13;;;;;;;;;;5044641;28;20650;-75
2024/01/22 02:20:44;;;;;;;89.80;30.30;;;;;;;;;;5046485;28;20236;-74
2024/01/22 02:23:10;;;;;;;77.43;26.30;;;;;;;;;;5044884;28;20596;-74
2024/01/22 02:25:35;;;;;;;67.87;24.63;;;;;;;;;;5045405;28;20742;-73
2024/01/22 02:28:00;;;;;;;70.27;25.00;;;;;;;;;;5028387;28;20221;-74
2024/01/22 02:30:26;;;;;;;64.40;23.57;;;;;;;;;;5046543;28;20607;-73
2024/01/22 02:32:51;;;;;;;66.50;22.63;;;;;;;;;;5030230;28;20231;-74
2024/01/22 02:35:17;;;;;;;68.37;24.47;;;;;;;;;;5027787;28;20309;-73
2024/01/22 02:37:43;;;;;;;69.60;24.27;;;;;;;;;;5047236;28;20223;-73
2024/01/22 02:40:08;;;;;;;63.57;22.77;;;;;;;;;;5045515;28;20237;-75
2024/01/22 02:42:33;;;;;;;67.93;23.87;;;;;;;;;;5029247;28;20225;-74
2024/01/22 02:44:59;;;;;;;64.17;22.70;;;;;;;;;;5045228;28;20653;-74
2024/01/22 02:47:24;;;;;;;66.03;23.03;;;;;;;;;;5029455;28;20220;-74
2024/01/22 02:49:50;;;;;;;75.50;24.73;;;;;;;;;;5046000;28;20236;-74
2024/01/22 02:52:15;;;;;;;64.47;23.27;;;;;;;;;;5040777;28;21059;-73
2024/01/22 02:54:41;;;;;;;70.13;24.90;;;;;;;;;;5046037;28;20228;-74
2024/01/22 02:57:06;;;;;;;69.30;23.83;;;;;;;;;;5029222;28;20228;-74
2024/01/22 02:59:36;;;;;;;65.97;23.43;;;;;;;;;;5045835;28;20299;-73
2024/01/22 03:02:01;;;;;;;67.47;23.23;;;;;;;;;;5029834;28;20840;-73
2024/01/22 03:04:26;;;;;;;68.67;24.10;;;;;;;;;;5063727;28;20323;-72
2024/01/22 03:06:52;;;;;;;66.83;22.80;;;;;;;;;;5042190;28;20355;-73
2024/01/22 03:09:17;;;;;;;58.00;20.80;;;;;;;;;;5063216;28;20252;-73
2024/01/22 03:11:42;;;;;;;60.60;20.60;;;;;;;;;;5045382;28;20232;-74
2024/01/22 03:14:08;;;;;;;55.73;19.37;;;;;;;;;;5045240;28;20229;-73
2024/01/22 03:16:33;;;;;;;57.30;20.40;;;;;;;;;;5043817;28;20224;-73
2024/01/22 03:18:59;;;;;;;53.27;18.53;;;;;;;;;;5044800;28;20231;-74
2024/01/22 03:21:24;;;;;;;54.17;19.43;;;;;;;;;;5029052;28;20311;-72
2024/01/22 03:23:49;;;;;;;48.03;17.03;;;;;;;;;;5029314;28;20598;-73
2024/01/22 03:26:19;;;;;;;46.60;17.50;;;;;;;;;;5063497;28;20273;-73
2024/01/22 03:28:44;;;;;;;47.07;17.80;;;;;;;;;;5028982;28;20274;-74
2024/01/22 03:31:18;;;;;;;51.17;18.07;;;;;;;;;;5027689;28;20217;-74
2024/01/22 03:33:44;;;;;;;49.77;17.83;;;;;;;;;;5063253;28;21168;-74
2024/01/22 03:36:09;;;;;;;51.57;19.33;;;;;;;;;;5045332;28;20225;-73
2024/01/22 03:38:35;;;;;;;52.43;19.37;;;;;;;;;;5044309;28;20287;-74
2024/01/22 03:41:00;;;;;;;58.63;19.67;;;;;;;;;;5031886;28;20271;-73
2024/01/22 03:43:44;;;;;;;59.13;20.20;;;;;;;;;;5049022;28;20228;-74
2024/01/22 03:46:12;;;;;;;60.63;22.40;;;;;;;;;;5048840;28;20225;-74
2024/01/22 03:48:38;;;;;;;60.20;21.27;;;;;;;;;;5033302;28;20320;-73
2024/01/22 03:51:03;;;;;;;59.73;20.50;;;;;;;;;;5048870;28;20315;-74
2024/01/22 03:53:29;;;;;;;56.33;20.10;;;;;;;;;;5032589;28;20316;-74
2024/01/22 03:55:54;;;;;;;63.43;20.87;;;;;;;;;;5048879;28;20217;-73
2024/01/22 03:58:19;;;;;;;65.10;22.60;;;;;;;;;;5048798;28;20259;-75
2024/01/22 04:00:44;;;;;;;55.27;20.17;;;;;;;;;;5049644;28;20315;-74
2024/01/22 04:03:10;;;;;;;61.97;20.30;;;;;;;;;;5031967;28;20256;-74
2024/01/22 04:05:37;;;;;;;61.30;19.67;;;;;;;;;;5032446;28;20315;-74
2024/01/22 04:08:02;;;;;;;61.17;21.30;;;;;;;;;;5032307;28;20217;-72
2024/01/22 04:10:28;;;;;;;58.30;21.53;;;;;;;;;;5051131;28;20244;-71
2024/01/22 04:12:54;;;;;;;65.43;21.97;;;;;;;;;;5068779;28;20228;-71
2024/01/22 04:15:20;;;;;;;59.67;20.53;;;;;;;;;;5045835;28;20239;-71
2024/01/22 04:17:45;;;;;;;63.17;21.80;;;;;;;;;;5050970;28;20671;-71
2024/01/22 04:20:10;;;;;;;58.53;20.43;;;;;;;;;;5049870;28;20260;-72
2024/01/22 04:22:36;;;;;;;64.60;22.43;;;;;;;;;;5049600;28;20224;-72
2024/01/22 04:25:01;;;;;;;59.67;20.67;;;;;;;;;;5050054;28;20274;-72
2024/01/22 04:27:26;;;;;;;72.80;22.50;;;;;;;;;;5051187;28;20260;-71
2024/01/22 04:29:52;;;;;;;67.77;22.20;;;;;;;;;;5051947;28;20294;-71
2024/01/22 04:32:17;;;;;;;68.30;22.63;;;;;;;;;;5049883;28;20271;-71
2024/01/22 04:34:42;;;;;;;73.17;23.10;;;;;;;;;;5033784;28;20341;-72
2024/01/22 04:37:08;;;;;;;63.67;21.90;;;;;;;;;;5068192;28;20297;-73
2024/01/22 04:39:34;;;;;;;64.17;22.43;;;;;;;;;;5050058;28;20302;-72
2024/01/22 04:41:59;;;;;;;64.60;20.70;;;;;;;;;;5067688;28;20669;-72
2024/01/22 04:44:28;;;;;;;58.40;18.93;;;;;;;;;;5050107;28;20220;-72
2024/01/22 04:46:53;;;;;;;58.03;20.00;;;;;;;;;;5068434;28;20316;-71
2024/01/22 04:49:19;;;;;;;55.87;19.47;;;;;;;;;;5049832;28;20303;-71
2024/01/22 04:51:44;;;;;;;52.97;17.63;;;;;;;;;;5050235;28;20216;-71
2024/01/22 04:54:10;;;;;;;53.23;17.67;;;;;;;;;;5048943;28;20221;-74
2024/01/22 04:56:41;;;;;;;53.23;18.20;;;;;;;;;;5048825;28;20225;-74
2024/01/22 04:59:10;;;;;;;47.07;16.90;;;;;;;;;;5029922;28;20217;-74
2024/01/22 05:01:35;;;;;;;46.03;16.43;;;;;;;;;;5065736;28;20247;-74
2024/01/22 05:04:01;;;;;;;40.13;14.80;;;;;;;;;;5030763;28;20216;-73
2024/01/22 05:06:26;;;;;;;36.40;13.97;;;;;;;;;;5031784;28;20236;-74
2024/01/22 05:08:51;;;;;;;40.47;14.30;;;;;;;;;;5024364;28;20237;-74
2024/01/22 05:11:17;;;;;;;40.07;14.47;;;;;;;;;;5046977;28;20224;-74
2024/01/22 05:13:52;;;;;;;49.10;16.67;;;;;;;;;;5044892;28;20228;-74
2024/01/22 05:16:18;;;;;;;44.90;15.90;;;;;;;;;;5062576;28;20267;-75
2024/01/22 05:18:43;;;;;;;46.53;17.17;;;;;;;;;;5030660;28;20697;-74
2024/01/22 05:21:09;;;;;;;52.20;17.63;;;;;;;;;;5048637;28;20748;-73
2024/01/22 05:23:34;;;;;;;45.60;16.03;;;;;;;;;;5044708;28;20228;-73
2024/01/22 05:26:00;;;;;;;44.17;15.67;;;;;;;;;;5047236;28;20225;-73
2024/01/22 05:28:25;;;;;;;46.23;15.83;;;;;;;;;;5064079;28;20800;-73
2024/01/22 05:30:50;;;;;;;42.73;15.50;;;;;;;;;;5029565;28;20664;-74
2024/01/22 05:33:16;;;;;;;45.37;15.67;;;;;;;;;;5029502;28;20833;-74
2024/01/22 05:35:41;;;;;;;45.77;17.17;;;;;;;;;;5048054;28;20728;-74
2024/01/22 05:38:06;;;;;;;40.63;15.97;;;;;;;;;;5029118;28;20217;-73
2024/01/22 05:40:32;;;;;;;43.03;15.20;;;;;;;;;;5065112;28;20235;-74
2024/01/22 05:42:57;;;;;;;43.93;15.60;;;;;;;;;;5027430;28;20225;-74
2024/01/22 05:45:22;;;;;;;44.40;15.77;;;;;;;;;;5030027;28;20225;-74
2024/01/22 05:47:48;;;;;;;45.10;15.70;;;;;;;;;;5046165;28;20859;-74
2024/01/22 05:50:13;;;;;;;44.40;15.83;;;;;;;;;;5045874;28;20236;-73
2024/01/22 05:52:38;;;;;;;46.20;16.23;;;;;;;;;;5046196;28;20228;-72
2024/01/22 05:55:04;;;;;;;44.27;14.70;;;;;;;;;;5028130;28;20229;-73
2024/01/22 05:57:29;;;;;;;42.47;14.67;;;;;;;;;;5063290;28;20224;-72
2024/01/22 05:59:55;;;;;;;47.30;15.40;;;;;;;;;;5027732;28;20311;-73
2024/01/22 06:02:38;;;;;;;46.53;16.10;;;;;;;;;;5062512;28;20224;-70
2024/01/22 06:05:04;;;;;;;45.70;15.60;;;;;;;;;;5063045;28;20228;-70
2024/01/22 06:07:30;;;;;;;42.67;14.93;;;;;;;;;;5064168;28;20233;-70
2024/01/22 06:09:56;;;;;;;43.37;15.27;;;;;;;;;;5045348;28;20248;-71
2024/01/22 06:12:21;;;;;;;40.47;14.40;;;;;;;;;;5026382;28;20224;-71
2024/01/22 06:14:46;;;;;;;40.53;13.93;;;;;;;;;;5044580;28;20753;-73
2024/01/22 06:17:11;;;;;;;39.30;14.03;;;;;;;;;;5044767;28;20884;-72
2024/01/22 06:19:37;;;;;;;45.30;15.00;;;;;;;;;;5027569;28;20232;-73
2024/01/22 06:22:03;;;;;;;44.67;15.03;;;;;;;;;;5027216;28;20300;-72
2024/01/22 06:24:29;;;;;;;43.03;15.07;;;;;;;;;;5043811;28;20225;-72
2024/01/22 06:26:54;;;;;;;43.80;15.83;;;;;;;;;;5045554;28;20267;-72
2024/01/22 06:29:22;;;;;;;48.70;15.47;;;;;;;;;;5027307;28;20285;-72
2024/01/22 06:31:47;;;;;;;46.40;15.20;;;;;;;;;;5045258;28;20220;-73
2024/01/22 06:34:12;;;;;;;50.67;16.67;;;;;;;;;;5063546;28;20225;-73
2024/01/22 06:36:38;;;;;;;47.23;15.77;;;;;;;;;;5046709;28;20728;-73
2024/01/22 06:39:03;;;;;;;48.23;16.17;;;;;;;;;;5046318;28;20732;-73
2024/01/22 06:41:29;;;;;;;53.37;17.40;;;;;;;;;;5045296;28;21260;-73
2024/01/22 06:43:54;;;;;;;59.80;17.47;;;;;;;;;;5064349;28;20233;-74
2024/01/22 06:46:20;;;;;;;56.10;17.53;;;;;;;;;;5029919;28;20785;-73
2024/01/22 06:48:45;;;;;;;54.73;18.40;;;;;;;;;;5028999;28;20221;-73
2024/01/22 06:51:11;;;;;;;63.47;18.07;;;;;;;;;;5062916;28;20290;-72
2024/01/22 06:53:37;;;;;;;64.30;19.40;;;;;;;;;;5046799;28;20281;-72
2024/01/22 06:56:02;;;;;;;60.37;19.37;;;;;;;;;;5044230;28;20741;-73
2024/01/22 06:58:28;;;;;;;56.37;17.97;;;;;;;;;;5040248;28;20277;-71
2024/01/22 07:00:53;;;;;;;69.17;19.63;;;;;;;;;;5034943;28;20902;-74
2024/01/22 07:03:20;;;;;;;63.87;19.13;;;;;;;;;;5045118;28;20228;-72
2024/01/22 07:05:45;;;;;;;62.17;18.13;;;;;;;;;;5029340;28;20228;-73
2024/01/22 07:08:11;;;;;;;54.23;17.63;;;;;;;;;;5028572;28;20281;-73
2024/01/22 07:10:36;;;;;;;70.67;20.00;;;;;;;;;;5029622;28;20225;-74
2024/01/22 07:13:01;;;;;;;67.33;19.77;;;;;;;;;;5028725;28;20334;-74
2024/01/22 07:15:27;;;;;;;64.33;19.53;;;;;;;;;;5062950;28;20230;-73
2024/01/22 07:17:52;;;;;;;67.20;20.50;;;;;;;;;;5029257;28;20236;-74
2024/01/22 07:20:18;;;;;;;67.27;20.10;;;;;;;;;;5030500;28;20241;-69
2024/01/22 07:22:43;;;;;;;72.00;20.33;;;;;;;;;;5048471;28;20624;-70
2024/01/22 07:25:09;;;;;;;129.40;33.60;;;;;;;;;;5030430;28;20266;-70
2024/01/22 07:27:38;;;;;;;73.47;22.47;;;;;;;;;;5030662;28;20224;-69
2024/01/22 07:30:07;;;;;;;68.83;21.07;;;;;;;;;;5042096;28;20312;-70
2024/01/22 07:32:36;;;;;;;71.27;20.47;;;;;;;;;;5048409;28;20713;-70
2024/01/22 07:35:03;;;;;;;69.73;20.57;;;;;;;;;;5030815;28;20779;-70
2024/01/22 07:37:28;;;;;;;60.77;19.20;;;;;;;;;;5046442;28;20225;-70
2024/01/22 07:39:53;;;;;;;60.77;19.43;;;;;;;;;;5047364;28;20747;-71
2024/01/22 07:42:18;;;;;;;59.53;18.43;;;;;;;;;;5030597;28;20690;-71
2024/01/22 07:44:44;;;;;;;60.63;18.73;;;;;;;;;;5066768;28;20262;-68
2024/01/22 07:47:10;;;;;;;65.70;20.13;;;;;;;;;;5046317;28;20240;-70
2024/01/22 07:49:35;;;;;;;59.27;19.20;;;;;;;;;;5065431;28;20754;-70
2024/01/22 07:52:01;;;;;;;63.20;20.70;;;;;;;;;;5045947;28;20232;-69
2024/01/22 07:54:26;;;;;;;56.40;19.17;;;;;;;;;;5030109;28;20665;-70
2024/01/22 07:56:52;;;;;;;75.13;24.10;;;;;;;;;;5046907;28;20235;-70
2024/01/22 07:59:17;;;;;;;101.47;27.73;;;;;;;;;;5045459;28;20240;-70
2024/01/22 08:01:42;;;;;;;96.07;27.70;;;;;;;;;;5046361;28;20308;-70
2024/01/22 08:04:08;;;;;;;90.53;27.10;;;;;;;;;;5046373;28;21162;-71
2024/01/22 08:06:33;;;;;;;101.23;28.07;;;;;;;;;;5047108;28;20294;-71
2024/01/22 08:08:59;;;;;;;99.53;26.97;;;;;;;;;;5030483;28;20247;-71
2024/01/22 08:11:24;;;;;;;101.67;30.17;;;;;;;;;;5047367;28;20248;-71
2024/01/22 08:13:50;;;;;;;120.67;35.83;;;;;;;;;;5064985;28;20240;-71
2024/01/22 08:16:15;;;;;;;104.00;31.83;;;;;;;;;;5030540;28;20224;-70
2024/01/22 08:18:40;;;;;;;98.70;26.93;;;;;;;;;;5047150;28;20243;-71
2024/01/22 08:21:06;;;;;;;98.33;26.50;;;;;;;;;;5031115;28;20278;-71
2024/01/22 08:23:31;;;;;;;102.53;30.27;;;;;;;;;;5047747;28;20282;-71
2024/01/22 08:25:56;;;;;;;89.27;25.47;;;;;;;;;;5031732;28;20228;-71
2024/01/22 08:28:21;;;;;;;93.90;27.70;;;;;;;;;;5049766;28;20311;-71
2024/01/22 08:30:47;;;;;;;87.80;25.67;;;;;;;;;;5068313;28;20216;-70
2024/01/22 08:33:12;;;;;;;78.07;21.90;;;;;;;;;;5033602;28;20321;-71
2024/01/22 08:35:38;;;;;;;82.40;24.20;;;;;;;;;;5033744;28;20225;-70
2024/01/22 08:38:03;;;;;;;88.00;25.07;;;;;;;;;;5032716;28;20541;-72
2024/01/22 08:40:29;;;;;;;83.43;24.03;;;;;;;;;;5049158;28;20896;-70
2024/01/22 08:42:55;;;;;;;146.13;50.83;;;;;;;;;;5033475;28;20232;-71
2024/01/22 08:45:21;;;;;;;79.27;23.77;;;;;;;;;;5048433;28;20239;-70
2024/01/22 08:47:46;;;;;;;82.10;25.13;;;;;;;;;;5068079;28;20221;-72
2024/01/22 08:50:15;;;;;;;98.30;29.00;;;;;;;;;;5047289;28;20228;-72
2024/01/22 08:52:42;;;;;;;97.80;27.27;;;;;;;;;;5050327;28;20660;-71
2024/01/22 08:55:07;;;;;;;103.33;27.40;;;;;;;;;;5048057;28;20229;-72
2024/01/22 08:57:33;;;;;;;96.07;27.07;;;;;;;;;;5049645;28;21317;-71
2024/01/22 08:59:58;;;;;;;102.47;28.47;;;;;;;;;;5033709;28;20228;-70
2024/01/22 09:02:23;;;;;;;86.67;26.37;;;;;;;;;;5067220;28;20943;-71
2024/01/22 09:04:49;;;;;;;88.53;25.67;;;;;;;;;;5049924;28;20307;-70
2024/01/22 09:07:14;;;;;;;81.27;24.50;;;;;;;;;;5049305;28;20267;-70
2024/01/22 09:09:40;;;;;;;86.93;25.47;;;;;;;;;;5044942;28;20634;-71
2024/01/22 09:12:06;;;;;;;92.80;28.07;;;;;;;;;;5033055;28;20228;-71
2024/01/22 09:14:31;;;;;;;95.83;27.03;;;;;;;;;;5068734;28;20235;-70
2024/01/22 09:16:56;;;;;;;93.30;27.73;;;;;;;;;;5070524;28;20231;-71
2024/01/22 09:19:22;;;;;;;102.70;30.90;;;;;;;;;;5052645;28;20315;-72
2024/01/22 09:21:47;;;;;;;95.03;25.63;;;;;;;;;;5036005;28;20240;-71
2024/01/22 09:24:12;;;;;;;97.27;27.77;;;;;;;;;;5068289;28;20717;-72
2024/01/22 09:26:37;;;;;;;84.63;25.97;;;;;;;;;;5046222;28;20229;-71
2024/01/22 09:29:03;;;;;;;93.00;25.60;;;;;;;;;;5065888;28;20225;-69
2024/01/22 09:31:29;;;;;;;105.80;33.90;;;;;;;;;;5031298;28;20223;-70
2024/01/22 09:33:55;;;;;;;120.53;39.27;;;;;;;;;;5066671;28;20308;-71
2024/01/22 09:36:21;;;;;;;102.63;27.83;;;;;;;;;;5030648;28;20266;-70
2024/01/22 09:38:46;;;;;;;93.53;27.03;;;;;;;;;;5067180;28;20293;-71
2024/01/22 09:41:13;;;;;;;110.13;31.47;;;;;;;;;;5047645;28;20718;-70
2024/01/22 09:43:38;;;;;;;86.47;26.50;;;;;;;;;;5032007;28;20286;-71
2024/01/22 09:46:03;;;;;;;93.63;28.03;;;;;;;;;;5048577;28;20229;-71
2024/01/22 09:48:32;;;;;;;87.30;27.10;;;;;;;;;;5048675;28;20324;-70
2024/01/22 09:50:57;;;;;;;84.57;25.83;;;;;;;;;;5066506;28;20228;-70
2024/01/22 09:53:22;;;;;;;91.13;28.37;;;;;;;;;;5047840;28;20225;-71
2024/01/22 09:55:48;;;;;;;87.83;27.60;;;;;;;;;;5032493;28;20224;-70
2024/01/22 09:58:13;;;;;;;91.83;27.40;;;;;;;;;;5066504;28;20228;-71
2024/01/22 10:00:39;;;;;;;87.50;27.27;;;;;;;;;;5032353;28;20797;-71
2024/01/22 10:03:04;;;;;;;95.63;29.07;;;;;;;;;;5031767;28;20231;-72
2024/01/22 10:05:30;;;;;;;99.03;28.57;;;;;;;;;;5031458;28;20267;-71
2024/01/22 10:07:56;;;;;;;92.10;28.70;;;;;;;;;;5067296;28;20726;-71
2024/01/22 10:10:21;;;;;;;91.13;27.70;;;;;;;;;;5047577;28;20240;-70
2024/01/22 10:12:56;;;;;;;96.27;28.70;;;;;;;;;;5065884;28;20224;-71
2024/01/22 10:15:21;;;;;;;103.67;30.47;;;;;;;;;;5048108;28;20250;-70
2024/01/22 10:17:47;;;;;;;101.17;30.33;;;;;;;;;;5032050;28;20694;-71
2024/01/22 10:20:12;;;;;;;96.70;29.97;;;;;;;;;;5030440;28;20255;-70
2024/01/22 10:22:38;;;;;;;103.90;31.00;;;;;;;;;;5048556;28;20774;-72
2024/01/22 10:25:03;;;;;;;108.03;32.07;;;;;;;;;;5047466;28;20780;-71
2024/01/22 10:27:28;;;;;;;105.23;32.40;;;;;;;;;;5066339;28;20221;-71
2024/01/22 10:30:10;;;;;;;108.30;31.60;;;;;;;;;;5046686;28;20240;-70
2024/01/22 10:32:36;;;;;;;104.43;31.63;;;;;;;;;;5047130;28;20228;-70
2024/01/22 10:35:01;;;;;;;126.57;40.90;;;;;;;;;;5030878;28;20231;-72
2024/01/22 10:37:27;;;;;;;113.27;34.80;;;;;;;;;;5047612;28;20228;-72
2024/01/22 10:40:02;;;;;;;102.63;31.70;;;;;;;;;;5031962;28;20225;-71
2024/01/22 10:42:28;;;;;;;107.40;32.93;;;;;;;;;;5048163;28;20221;-71
2024/01/22 10:44:54;;;;;;;108.47;33.17;;;;;;;;;;5031496;28;20235;-71
2024/01/22 10:47:20;;;;;;;106.47;32.33;;;;;;;;;;5029861;28;20217;-70
2024/01/22 10:49:45;;;;;;;100.60;32.40;;;;;;;;;;5045066;28;20629;-72
2024/01/22 10:52:11;;;;;;;92.87;29.60;;;;;;;;;;5046060;28;20286;-72
2024/01/22 10:54:36;;;;;;;87.70;25.93;;;;;;;;;;5031524;28;20232;-71
2024/01/22 10:57:03;;;;;;;88.90;27.63;;;;;;;;;;5029129;28;20401;-72
2024/01/22 10:59:28;;;;;;;88.57;27.17;;;;;;;;;;5057486;28;20229;-71
2024/01/22 11:01:54;;;;;;;84.90;26.77;;;;;;;;;;5030171;28;20612;-71
2024/01/22 11:04:21;;;;;;;84.03;26.67;;;;;;;;;;5046467;28;20998;-70
2024/01/22 11:06:47;;;;;;;87.77;27.67;;;;;;;;;;5047104;28;20781;-72
2024/01/22 11:09:12;;;;;;;90.57;27.83;;;;;;;;;;5064616;28;20248;-72
2024/01/22 11:11:38;;;;;;;85.50;25.90;;;;;;;;;;5046799;28;20224;-72
2024/01/22 11:14:05;;;;;;;80.17;25.90;;;;;;;;;;5047514;28;20235;-71
2024/01/22 11:16:30;;;;;;;75.60;22.30;;;;;;;;;;5065404;28;20699;-71
2024/01/22 11:18:57;;;;;;;85.00;25.63;;;;;;;;;;5047290;28;20236;-69
2024/01/22 11:21:24;;;;;;;87.20;27.60;;;;;;;;;;5030954;28;21082;-71
2024/01/22 11:24:22;;;;;;;85.13;25.43;;;;;;;;;;5031209;28;20282;-71
2024/01/22 11:26:53;;;;;;;87.80;25.70;;;;;;;;;;4993324;28;20499;-71
2024/01/22 11:29:22;;;;;;;89.50;26.30;;;;;;;;;;5046918;28;20241;-71
2024/01/22 11:31:48;;;;;;;90.03;26.73;;;;;;;;;;5045760;28;20278;-75
2024/01/22 11:34:13;;;;;;;89.13;25.33;;;;;;;;;;5028565;28;20232;-75
2024/01/22 11:36:48;;;;;;;86.47;26.23;;;;;;;;;;5045980;28;20240;-75
2024/01/22 11:39:32;;;;;;;87.50;26.73;;;;;;;;;;5035596;28;20831;-75
2024/01/22 11:41:57;;;;;;;85.50;25.20;;;;;;;;;;5062982;28;20713;-76
2024/01/22 11:44:26;;;;;;;89.67;26.10;;;;;;;;;;5063306;28;20282;-76
2024/01/22 11:47:03;;;;;;;87.63;26.63;;;;;;;;;;5045761;28;20706;-76
2024/01/22 11:49:28;;;;;;;88.17;26.53;;;;;;;;;;5044749;28;20222;-76
2024/01/22 11:51:53;;;;;;;89.13;28.07;;;;;;;;;;5063925;28;20221;-76
2024/01/22 11:54:19;;;;;;;90.50;27.73;;;;;;;;;;5044044;28;20236;-76
2024/01/22 11:56:45;;;;;;;110.80;32.67;;;;;;;;;;5044358;28;20246;-76
2024/01/22 11:59:10;;;;;;;90.80;27.30;;;;;;;;;;5044251;28;20672;-76
2024/01/22 12:01:36;;;;;;;91.63;28.83;;;;;;;;;;5031100;28;20232;-76
2024/01/22 12:04:10;;;;;;;88.73;28.17;;;;;;;;;;5067337;28;20966;-76
2024/01/22 12:06:49;;;;;;;91.63;28.03;;;;;;;;;;5049657;28;20245;-76
2024/01/22 12:09:14;;;;;;;94.50;29.87;;;;;;;;;;5047912;28;20275;-75
2024/01/22 12:11:45;;;;;;;95.33;29.10;;;;;;;;;;5049723;28;20249;-75
2024/01/22 12:14:11;;;;;;;95.67;29.77;;;;;;;;;;5031545;28;20237;-75
2024/01/22 12:16:37;;;;;;;84.67;26.97;;;;;;;;;;5032676;28;20236;-76
2024/01/22 12:19:10;;;;;;;91.30;27.37;;;;;;;;;;5048549;28;20224;-75
2024/01/22 12:21:35;;;;;;;85.60;28.27;;;;;;;;;;5032083;28;20294;-76
2024/01/22 12:24:09;;;;;;;79.57;26.30;;;;;;;;;;5032164;28;20754;-75
2024/01/22 12:29:29;;;;;;;80.73;25.60;;;;;;;;;;4957055;28;20322;-70
2024/01/22 12:32:04;;;;;;;87.87;27.43;;;;;;;;;;4942003;28;20268;-71
2024/01/22 12:34:30;;;;;;;78.83;26.03;;;;;;;;;;4912713;29;20352;-72
2024/01/22 12:36:56;;;;;;;83.37;27.03;;;;;;;;;;4922478;29;20246;-70
2024/01/22 12:39:21;;;;;;;80.73;26.13;;;;;;;;;;4915791;28;20851;-71
2024/01/22 12:41:46;;;;;;;81.07;24.57;;;;;;;;;;4922700;29;20622;-71
2024/01/22 12:44:15;;;;;;;79.83;24.93;;;;;;;;;;4919882;28;20297;-71
2024/01/22 12:46:40;;;;;;;87.33;27.10;;;;;;;;;;4918524;29;20241;-75
2024/01/22 12:49:05;;;;;;;80.30;26.03;;;;;;;;;;4916289;29;20240;-75
2024/01/22 12:51:31;;;;;;;78.73;26.30;;;;;;;;;;4906482;29;20222;-76
2024/01/22 12:53:56;;;;;;;86.13;26.70;;;;;;;;;;4923336;29;20237;-76
2024/01/22 12:56:21;;;;;;;90.20;27.70;;;;;;;;;;4912906;28;20232;-75
2024/01/22 12:58:47;;;;;;;92.27;28.10;;;;;;;;;;4922709;29;20296;-69
2024/01/22 13:01:12;;;;;;;85.53;27.70;;;;;;;;;;4937927;28;20300;-70
2024/01/22 13:03:38;;;;;;;89.97;27.83;;;;;;;;;;4918672;29;20233;-71
2024/01/22 13:06:03;;;;;;;90.27;27.87;;;;;;;;;;4925304;29;20238;-72
2024/01/22 13:08:28;;;;;;;88.00;27.00;;;;;;;;;;4923231;29;20713;-71
2024/01/22 13:10:57;;;;;;;86.67;26.90;;;;;;;;;;4920815;29;20233;-71
2024/01/22 13:13:22;;;;;;;84.07;25.60;;;;;;;;;;4907430;29;20253;-71
2024/01/22 13:15:47;;;;;;;89.47;27.30;;;;;;;;;;4938707;29;20233;-71
2024/01/22 13:18:13;;;;;;;84.40;26.47;;;;;;;;;;4919257;28;20225;-71
2024/01/22 13:20:41;;;;;;;88.20;28.07;;;;;;;;;;4915313;29;20237;-71
2024/01/22 13:23:06;;;;;;;87.80;27.27;;;;;;;;;;4907187;29;20225;-71
2024/01/22 13:25:32;;;;;;;89.90;27.57;;;;;;;;;;4920885;29;20237;-71
2024/01/22 13:27:57;;;;;;;92.70;27.43;;;;;;;;;;4924460;29;20277;-69
2024/01/22 13:30:23;;;;;;;89.03;27.03;;;;;;;;;;4938578;28;20622;-69
2024/01/22 13:32:48;;;;;;;98.73;31.13;;;;;;;;;;4923678;29;20681;-70
2024/01/22 13:35:13;;;;;;;98.27;29.80;;;;;;;;;;4920183;29;20652;-70
2024/01/22 13:37:39;;;;;;;87.10;27.83;;;;;;;;;;4926795;29;20283;-71
2024/01/22 13:40:07;;;;;;;99.90;30.20;;;;;;;;;;4936202;29;20236;-71
2024/01/22 13:42:33;;;;;;;89.73;29.40;;;;;;;;;;4905635;29;20245;-71
2024/01/22 13:44:58;;;;;;;92.00;28.47;;;;;;;;;;4915115;29;20271;-71
2024/01/22 13:47:24;;;;;;;95.43;29.07;;;;;;;;;;4939606;28;20229;-71
2024/01/22 13:49:49;;;;;;;103.83;30.77;;;;;;;;;;4930153;29;20692;-71
2024/01/22 13:52:14;;;;;;;132.93;42.37;;;;;;;;;;4937129;28;20237;-71
2024/01/22 13:54:40;;;;;;;105.73;33.43;;;;;;;;;;4907946;29;20225;-70
2024/01/22 13:57:05;;;;;;;135.57;41.00;;;;;;;;;;4914617;28;20967;-71
2024/01/22 13:59:31;;;;;;;161.10;44.17;;;;;;;;;;4935447;29;20236;-71
2024/01/22 14:01:57;;;;;;;149.90;39.83;;;;;;;;;;4911379;29;20804;-69
2024/01/22 14:04:22;;;;;;;448.27;91.50;;;;;;;;;;4936818;28;20237;-70
2024/01/22 14:06:48;;;;;;;115.00;32.27;;;;;;;;;;4904706;29;20232;-71
2024/01/22 14:09:16;;;;;;;99.80;29.47;;;;;;;;;;4919141;29;20320;-71
2024/01/22 14:11:41;;;;;;;136.33;47.60;;;;;;;;;;4913472;29;20226;-71